Terminal Aerodrome Forecast
Issued by NWS

Home | Current Version | Previous Version | Text Only | Print | Product List | Glossary On
Versions: 1 2 3 4 5 6 7 8 9 10 11 12 13 14 15 16 17 18 19 20 21 22 23 24 25
000
FTUS46 KOTX 281739
TAFCOE
TAF
KCOE 281739Z 2818/2918 22007KT P6SM BKN040 BKN200
     FM290000 21007KT P6SM SCT050 SCT150 BKN200
     FM290300 15006KT P6SM SCT100 BKN200
     FM291300 18007KT P6SM SCT050 BKN150
      AMD LTD TO CLD AND VIS=

USA.gov is the U.S. government's official web portal to all federal, state and local government web resources and services.